createdAt,value
2023-01-13T00:05:13.607Z,3.65
2023-01-13T00:07:43.511Z,3.55
2023-01-13T00:10:12.262Z,3.50
2023-01-13T00:12:41.135Z,2.75
2023-01-13T00:15:09.432Z,3.78
2023-01-13T00:17:37.150Z,2.58
2023-01-13T00:20:04.861Z,2.55
2023-01-13T00:22:34.619Z,3.65
2023-01-13T00:25:02.122Z,3.90
2023-01-13T00:27:29.912Z,2.78
2023-01-13T00:29:57.475Z,3.40
2023-01-13T00:32:25.324Z,4.82
2023-01-13T00:34:53.016Z,3.00
2023-01-13T00:37:20.647Z,3.97
2023-01-13T00:39:48.070Z,3.72
2023-01-13T00:42:35.498Z,5.10
2023-01-13T00:45:04.041Z,4.07
2023-01-13T00:47:31.739Z,3.15
2023-01-13T00:49:59.118Z,4.88
2023-01-13T00:52:27.262Z,3.58
2023-01-13T00:54:54.639Z,4.45
2023-01-13T00:57:23.172Z,3.90
2023-01-13T00:59:50.585Z,4.20
2023-01-13T01:03:37.746Z,4.28
2023-01-13T01:06:09.303Z,4.97
2023-01-13T01:08:36.861Z,4.65
2023-01-13T01:11:08.626Z,4.60
2023-01-13T01:13:37.587Z,3.78
2023-01-13T01:16:09.572Z,3.63
2023-01-13T01:18:39.589Z,3.85
2023-01-13T01:21:07.262Z,4.65
2023-01-13T01:23:35.995Z,4.22
2023-01-13T01:26:03.407Z,3.83
2023-01-13T01:28:30.815Z,4.18
2023-01-13T01:31:00.063Z,4.28
2023-01-13T01:33:28.419Z,3.63
2023-01-13T01:35:55.767Z,4.53
2023-01-13T01:38:23.546Z,5.50
2023-01-13T01:40:51.113Z,4.13
2023-01-13T01:43:38.204Z,4.93
2023-01-13T01:46:06.144Z,4.22
2023-01-13T01:48:36.462Z,4.50
2023-01-13T01:51:04.088Z,3.88
2023-01-13T01:53:33.035Z,6.30
2023-01-13T01:56:01.062Z,4.13
2023-01-13T01:58:34.128Z,4.45
2023-01-13T02:01:01.865Z,4.35
2023-01-13T02:03:30.355Z,4.18
2023-01-13T02:05:58.020Z,4.53
2023-01-13T02:08:25.898Z,4.43
2023-01-13T02:10:54.684Z,4.55
2023-01-13T02:13:23.531Z,3.53
2023-01-13T02:15:54.119Z,3.70
2023-01-13T02:18:21.591Z,3.88
2023-01-13T02:20:56.356Z,3.75
2023-01-13T02:23:45.516Z,4.57
2023-01-13T02:26:22.516Z,4.47
2023-01-13T02:29:32.062Z,3.60
2023-01-13T02:32:14.725Z,4.40
2023-01-13T02:34:49.648Z,5.38
2023-01-13T02:37:23.247Z,4.13
2023-01-13T02:39:58.116Z,4.72
2023-01-13T02:42:50.492Z,4.55
2023-01-13T02:45:27.207Z,5.93
2023-01-13T02:47:57.175Z,5.40
2023-01-13T02:50:27.987Z,4.28
2023-01-13T02:53:01.728Z,4.22
2023-01-13T02:55:39.001Z,4.95
2023-01-13T02:58:08.365Z,4.57
2023-01-13T03:00:36.995Z,4.45
2023-01-13T03:03:04.739Z,5.47
2023-01-13T03:05:33.447Z,4.80
2023-01-13T03:08:20.054Z,4.60
2023-01-13T03:10:53.342Z,4.63
2023-01-13T03:13:41.352Z,5.18
2023-01-13T03:16:24.329Z,5.07
2023-01-13T03:18:55.847Z,4.78
2023-01-13T03:21:26.647Z,7.03
2023-01-13T03:23:54.229Z,6.78
2023-01-13T03:26:33.621Z,4.88
2023-01-13T03:29:07.214Z,5.68
2023-01-13T03:31:35.883Z,5.88
2023-01-13T03:34:11.126Z,4.20
2023-01-13T03:36:39.931Z,6.32
2023-01-13T03:39:11.306Z,4.63
2023-01-13T03:41:43.786Z,5.28
2023-01-13T03:44:22.737Z,4.65
2023-01-13T03:46:52.354Z,5.68
2023-01-13T03:49:23.057Z,4.93
2023-01-13T03:51:54.267Z,4.70
2023-01-13T03:54:25.053Z,3.55
2023-01-13T03:56:57.684Z,3.92
2023-01-13T03:59:27.831Z,4.43
2023-01-13T04:02:01.529Z,4.97
2023-01-13T04:04:33.959Z,4.15
2023-01-13T04:07:14.780Z,3.97
2023-01-13T04:09:49.966Z,4.80
2023-01-13T04:12:50.060Z,3.42
2023-01-13T04:15:22.973Z,3.10
2023-01-13T04:17:52.706Z,2.63
2023-01-13T04:20:20.771Z,3.85
2023-01-13T04:22:48.132Z,4.10
2023-01-13T04:25:17.372Z,2.50
2023-01-13T04:27:44.904Z,3.25
2023-01-13T04:30:13.889Z,2.58
2023-01-13T04:32:44.334Z,2.03
2023-01-13T04:35:14.967Z,2.28
2023-01-13T04:37:43.426Z,2.13
2023-01-13T04:40:12.155Z,1.55
2023-01-13T04:42:39.592Z,1.80
2023-01-13T04:45:07.470Z,1.88
2023-01-13T04:47:35.121Z,2.13
2023-01-13T04:50:06.350Z,1.63
2023-01-13T04:52:34.022Z,2.42
2023-01-13T04:55:01.908Z,2.30
2023-01-13T04:57:29.400Z,1.40
2023-01-13T04:59:57.800Z,2.20
2023-01-13T05:02:25.512Z,1.35
2023-01-13T05:04:53.040Z,1.85
2023-01-13T05:07:20.551Z,1.73
2023-01-13T05:09:48.471Z,2.00
2023-01-13T05:12:35.907Z,2.25
2023-01-13T05:15:22.383Z,2.35
2023-01-13T05:17:49.865Z,1.95
2023-01-13T05:20:18.316Z,1.83
2023-01-13T05:23:04.469Z,2.08
2023-01-13T05:25:32.051Z,2.25
2023-01-13T05:28:00.361Z,2.33
2023-01-13T05:30:29.155Z,2.63
2023-01-13T05:32:56.660Z,2.65
2023-01-13T05:35:24.573Z,2.83
2023-01-13T05:37:51.983Z,2.38
2023-01-13T05:40:38.324Z,2.60
2023-01-13T05:43:21.201Z,3.85
2023-01-13T05:45:50.154Z,3.03
2023-01-13T05:48:19.091Z,2.65
2023-01-13T05:50:49.359Z,2.55
2023-01-13T05:53:18.175Z,2.80
2023-01-13T05:55:45.615Z,3.88
2023-01-13T05:58:14.427Z,4.07
2023-01-13T06:00:42.188Z,3.47
2023-01-13T06:03:10.130Z,3.00
2023-01-13T06:05:39.164Z,2.92
2023-01-13T06:08:07.537Z,2.88
2023-01-13T06:10:36.042Z,2.83
2023-01-13T06:13:04.207Z,2.92
2023-01-13T06:15:31.812Z,3.00
2023-01-13T06:17:59.833Z,3.28
2023-01-13T06:20:27.356Z,3.30
2023-01-13T06:22:55.278Z,2.92
2023-01-13T06:25:39.261Z,3.92
2023-01-13T06:28:07.249Z,2.88
2023-01-13T06:30:43.805Z,3.20
2023-01-13T06:33:14.146Z,3.05
2023-01-13T06:35:44.864Z,3.53
2023-01-13T06:38:16.204Z,2.97
2023-01-13T06:40:44.911Z,2.58
2023-01-13T06:43:17.433Z,3.30
2023-01-13T06:45:52.910Z,3.30
2023-01-13T06:48:28.469Z,3.05
2023-01-13T06:50:56.465Z,3.38
2023-01-13T06:53:24.185Z,4.57
2023-01-13T06:55:51.609Z,2.95
2023-01-13T06:58:19.323Z,3.50
2023-01-13T07:00:51.677Z,3.42
2023-01-13T07:03:19.816Z,3.75
2023-01-13T07:05:55.616Z,3.05
2023-01-13T07:08:23.997Z,2.75
2023-01-13T07:10:51.622Z,2.35
2023-01-13T07:13:38.171Z,2.80
2023-01-13T07:16:07.381Z,3.40
2023-01-13T07:18:35.756Z,3.45
2023-01-13T07:21:05.180Z,3.03
2023-01-13T07:23:33.734Z,3.15
2023-01-13T07:26:01.358Z,3.30
2023-01-13T07:28:29.548Z,3.67
2023-01-13T07:31:00.498Z,3.50
2023-01-13T07:33:28.170Z,3.72
2023-01-13T07:35:59.916Z,3.75
2023-01-13T07:38:27.793Z,2.80
2023-01-13T07:40:55.352Z,4.32
2023-01-13T07:43:32.643Z,3.60
2023-01-13T07:46:01.209Z,3.22
2023-01-13T07:48:28.995Z,3.63
2023-01-13T07:50:56.997Z,3.33
2023-01-13T07:53:26.049Z,3.88
2023-01-13T07:55:57.089Z,3.92
2023-01-13T07:58:25.344Z,3.90
2023-01-13T08:00:53.252Z,3.72
2023-01-13T08:03:21.132Z,3.67
2023-01-13T08:05:49.201Z,3.45
2023-01-13T08:08:16.914Z,3.10
2023-01-13T08:10:45.066Z,2.85
2023-01-13T08:13:23.016Z,3.90
2023-01-13T08:15:54.501Z,3.15
2023-01-13T08:18:23.063Z,3.78
2023-01-13T08:20:52.605Z,3.83
2023-01-13T08:23:21.346Z,3.63
2023-01-13T08:25:49.239Z,3.67
2023-01-13T08:28:17.538Z,3.22
2023-01-13T08:30:45.376Z,3.70
2023-01-13T08:33:13.650Z,3.72
2023-01-13T08:35:42.417Z,3.40
2023-01-13T08:38:10.950Z,3.22
2023-01-13T08:40:41.045Z,4.72
2023-01-13T08:43:08.650Z,3.13
2023-01-13T08:45:36.473Z,3.15
2023-01-13T08:48:04.922Z,3.28
2023-01-13T08:50:32.867Z,3.47
2023-01-13T08:53:00.769Z,3.50
2023-01-13T08:55:29.757Z,3.35
2023-01-13T08:58:14.273Z,3.92
2023-01-13T09:00:43.003Z,3.53
2023-01-13T09:03:10.959Z,3.47
2023-01-13T09:05:38.540Z,3.70
2023-01-13T09:08:06.180Z,3.75
2023-01-13T09:10:33.968Z,3.47
2023-01-13T09:13:13.788Z,4.05
2023-01-13T09:15:47.626Z,3.60
2023-01-13T09:18:15.155Z,4.35
2023-01-13T09:20:42.821Z,4.65
2023-01-13T09:23:12.920Z,4.05
2023-01-13T09:25:41.072Z,4.18
2023-01-13T09:28:11.122Z,4.40
2023-01-13T09:30:38.934Z,4.13
2023-01-13T09:33:25.236Z,4.57
2023-01-13T09:35:59.434Z,5.00
2023-01-13T09:38:27.191Z,4.00
2023-01-13T09:40:54.820Z,4.53
2023-01-13T09:43:45.705Z,4.53
2023-01-13T09:46:47.279Z,4.07
2023-01-13T09:49:23.248Z,4.10
2023-01-13T09:51:50.652Z,3.67
2023-01-13T09:54:32.353Z,4.43
2023-01-13T09:57:00.251Z,5.80
2023-01-13T09:59:36.611Z,4.63
2023-01-13T10:02:24.429Z,3.78
2023-01-13T10:05:04.498Z,3.85
2023-01-13T10:07:34.653Z,4.50
2023-01-13T10:10:03.410Z,4.55
2023-01-13T10:12:58.368Z,4.85
2023-01-13T10:15:26.913Z,4.45
2023-01-13T10:18:05.933Z,5.43
2023-01-13T10:20:56.849Z,4.82
2023-01-13T10:23:24.375Z,3.92
2023-01-13T10:25:52.026Z,4.00
2023-01-13T10:28:19.869Z,3.70
2023-01-13T10:30:48.252Z,3.65
2023-01-13T10:33:20.809Z,4.95
2023-01-13T10:35:54.072Z,4.07
2023-01-13T10:38:27.759Z,5.18
2023-01-13T10:41:04.372Z,4.05
2023-01-13T10:43:32.029Z,4.30
2023-01-13T10:46:04.399Z,4.47
2023-01-13T10:48:41.680Z,4.13
2023-01-13T10:51:22.863Z,4.93
2023-01-13T10:53:52.659Z,4.45
2023-01-13T10:56:21.064Z,3.50
2023-01-13T10:58:48.604Z,3.97
2023-01-13T11:01:26.227Z,4.55
2023-01-13T11:03:55.075Z,4.00
2023-01-13T11:06:24.206Z,5.32
2023-01-13T11:08:55.296Z,5.25
2023-01-13T11:11:28.184Z,3.50
2023-01-13T11:14:16.173Z,3.85
2023-01-13T11:16:53.124Z,4.72
2023-01-13T11:19:23.500Z,3.60
2023-01-13T11:22:01.816Z,4.32
2023-01-13T11:24:35.147Z,4.05
2023-01-13T11:27:05.621Z,4.13
2023-01-13T11:32:04.493Z,5.28
2023-01-13T11:34:36.879Z,5.28
2023-01-13T11:37:08.174Z,4.00
2023-01-13T11:39:45.659Z,5.47
2023-01-13T11:42:24.505Z,4.85
2023-01-13T11:45:07.308Z,5.07
2023-01-13T11:47:36.412Z,4.72
2023-01-13T11:50:04.821Z,4.25
2023-01-13T11:52:32.315Z,4.05
2023-01-13T11:55:16.427Z,4.95
2023-01-13T11:57:43.858Z,5.28
2023-01-13T12:00:15.745Z,4.80
2023-01-13T12:03:02.258Z,4.38
2023-01-13T12:05:45.579Z,3.58
2023-01-13T12:08:18.463Z,4.90
2023-01-13T12:10:54.533Z,3.63
2023-01-13T12:13:28.974Z,2.75
2023-01-13T12:16:15.959Z,3.60
2023-01-13T12:18:59.078Z,4.78
2023-01-13T12:21:31.075Z,3.30
2023-01-13T12:24:23.318Z,3.17
2023-01-13T12:26:55.744Z,4.10
2023-01-13T12:29:28.910Z,3.38
2023-01-13T12:31:56.748Z,3.60
2023-01-13T12:34:34.183Z,3.90
2023-01-13T12:37:12.851Z,3.17
2023-01-13T12:39:50.842Z,3.83
2023-01-13T12:42:57.289Z,4.47
2023-01-13T12:45:29.326Z,4.00
2023-01-13T12:47:59.142Z,3.85
2023-01-13T12:50:26.605Z,3.28
2023-01-13T12:52:56.822Z,4.00
2023-01-13T12:55:25.342Z,3.47
2023-01-13T12:57:57.739Z,3.92
2023-01-13T13:00:31.972Z,4.30
2023-01-13T13:03:12.525Z,3.90
2023-01-13T13:05:49.502Z,3.65
2023-01-13T13:08:22.524Z,4.70
2023-01-13T13:11:07.758Z,3.40
2023-01-13T13:13:47.272Z,4.15
2023-01-13T13:16:27.898Z,3.50
2023-01-13T13:19:14.024Z,3.67
2023-01-13T13:22:01.898Z,4.20
2023-01-13T13:24:29.883Z,3.33
2023-01-13T13:26:57.678Z,3.47
2023-01-13T13:29:41.763Z,3.22
2023-01-13T13:32:18.500Z,4.75
2023-01-13T13:34:46.307Z,4.32
2023-01-13T13:37:26.442Z,3.83
2023-01-13T13:40:13.224Z,2.58
2023-01-13T13:43:03.855Z,3.00
2023-01-13T13:45:50.580Z,3.60
2023-01-13T13:48:20.907Z,3.55
2023-01-13T13:50:57.638Z,4.00
2023-01-13T13:53:32.360Z,5.47
2023-01-13T13:56:01.340Z,3.30
2023-01-13T13:58:35.509Z,3.58
2023-01-13T14:01:04.467Z,3.63
2023-01-13T14:03:38.299Z,3.47
2023-01-13T14:06:09.204Z,4.22
2023-01-13T14:08:38.568Z,3.85
2023-01-13T14:11:25.043Z,3.35
2023-01-13T14:14:03.509Z,3.88
2023-01-13T14:16:31.661Z,3.72
2023-01-13T14:18:59.640Z,2.63
2023-01-13T14:21:30.787Z,3.90
2023-01-13T14:23:58.404Z,2.88
2023-01-13T14:26:27.649Z,3.20
2023-01-13T14:28:56.073Z,2.83
2023-01-13T14:31:24.131Z,3.80
2023-01-13T14:33:55.811Z,2.65
2023-01-13T14:36:42.412Z,3.00
2023-01-13T14:39:14.940Z,2.60
2023-01-13T14:41:43.321Z,3.22
2023-01-13T14:44:19.080Z,3.30
2023-01-13T14:46:46.969Z,2.75
2023-01-13T14:49:30.061Z,3.05
2023-01-13T14:52:20.341Z,3.03
2023-01-13T14:54:49.133Z,2.78
2023-01-13T14:57:32.849Z,2.92
2023-01-13T15:00:08.615Z,3.47
2023-01-13T15:02:42.798Z,2.88
2023-01-13T15:05:19.682Z,3.30
2023-01-13T15:07:53.388Z,4.03
2023-01-13T15:10:23.023Z,3.22
2023-01-13T15:12:52.768Z,2.78
2023-01-13T15:15:24.805Z,2.75
2023-01-13T15:17:53.297Z,3.22
2023-01-13T15:20:22.770Z,3.50
2023-01-13T15:22:51.137Z,2.85
2023-01-13T15:25:18.844Z,3.03
2023-01-13T15:27:47.880Z,2.58
2023-01-13T15:30:16.097Z,3.33
2023-01-13T15:32:44.154Z,3.20
2023-01-13T15:35:16.022Z,3.63
2023-01-13T15:37:44.704Z,3.50
2023-01-13T15:40:17.342Z,3.15
2023-01-13T15:43:03.767Z,3.88
2023-01-13T15:45:53.699Z,3.10
2023-01-13T15:48:22.052Z,3.38
2023-01-13T15:50:49.899Z,2.97
2023-01-13T15:53:17.655Z,3.25
2023-01-13T15:55:46.268Z,3.15
2023-01-13T15:58:16.233Z,3.00
2023-01-13T16:00:43.776Z,2.95
2023-01-13T16:03:14.996Z,3.10
2023-01-13T16:05:44.676Z,2.85
2023-01-13T16:08:15.837Z,3.08
2023-01-13T16:10:44.977Z,3.90
2023-01-13T16:13:14.447Z,3.25
2023-01-13T16:15:47.033Z,3.13
2023-01-13T16:18:19.297Z,3.42
2023-01-13T16:20:47.140Z,2.88
2023-01-13T16:23:14.808Z,2.97
2023-01-13T16:25:48.541Z,2.55
2023-01-13T16:28:20.689Z,3.03
2023-01-13T16:30:48.469Z,3.00
2023-01-13T16:33:16.396Z,2.70
2023-01-13T16:36:09.953Z,3.03
2023-01-13T16:38:31.819Z,3.67
2023-01-13T16:40:59.468Z,3.10
2023-01-13T16:43:27.908Z,3.00
2023-01-13T16:45:55.428Z,2.38
2023-01-13T16:48:22.980Z,3.08
2023-01-13T16:50:50.451Z,4.00
2023-01-13T16:53:18.237Z,3.25
2023-01-13T16:55:45.865Z,2.85
2023-01-13T16:58:17.890Z,2.97
2023-01-13T17:00:47.620Z,2.60
2023-01-13T17:03:15.754Z,3.10
2023-01-13T17:05:46.903Z,3.03
2023-01-13T17:08:17.775Z,2.50
2023-01-13T17:10:46.876Z,2.35
2023-01-13T17:13:17.058Z,3.17
2023-01-13T17:15:45.982Z,3.55
2023-01-13T17:18:13.899Z,2.30
2023-01-13T17:20:42.230Z,2.58
2023-01-13T17:23:10.025Z,2.50
2023-01-13T17:25:38.229Z,3.08
2023-01-13T17:28:05.787Z,2.38
2023-01-13T17:30:33.338Z,2.70
2023-01-13T17:33:00.979Z,2.50
2023-01-13T17:35:28.706Z,2.55
2023-01-13T17:37:57.568Z,2.90
2023-01-13T17:40:24.994Z,2.90
2023-01-13T17:42:52.816Z,3.35
2023-01-13T17:45:20.397Z,2.92
2023-01-13T17:47:48.039Z,2.72
2023-01-13T17:50:17.512Z,2.88
2023-01-13T17:52:45.113Z,2.53
2023-01-13T17:55:16.185Z,2.88
2023-01-13T17:57:44.688Z,2.95
2023-01-13T18:00:14.772Z,2.80
2023-01-13T18:02:43.983Z,3.50
2023-01-13T18:05:12.900Z,2.22
2023-01-13T18:07:41.380Z,3.22
2023-01-13T18:10:09.175Z,2.67
2023-01-13T18:12:37.194Z,2.80
2023-01-13T18:15:05.039Z,3.38
2023-01-13T18:17:32.709Z,2.65
2023-01-13T18:20:20.970Z,2.47
2023-01-13T18:23:07.243Z,2.22
2023-01-13T18:25:53.625Z,2.67
2023-01-13T18:28:21.391Z,2.80
2023-01-13T18:30:49.046Z,2.90
2023-01-13T18:33:16.675Z,3.50
2023-01-13T18:35:44.523Z,2.53
2023-01-13T18:38:19.056Z,2.85
2023-01-13T18:40:50.201Z,3.10
2023-01-13T18:43:18.365Z,3.33
2023-01-13T18:45:51.580Z,2.60
2023-01-13T18:48:19.310Z,3.33
2023-01-13T18:50:47.014Z,3.35
2023-01-13T18:53:14.754Z,3.20
2023-01-13T18:55:43.837Z,3.28
2023-01-13T18:58:13.272Z,3.70
2023-01-13T19:00:41.878Z,3.15
2023-01-13T19:03:09.473Z,2.60
2023-01-13T19:05:38.349Z,3.20
2023-01-13T19:08:06.489Z,2.88
2023-01-13T19:10:35.061Z,2.95
2023-01-13T19:13:02.901Z,3.00
2023-01-13T19:15:30.728Z,3.25
2023-01-13T19:18:00.861Z,3.63
2023-01-13T19:20:28.789Z,3.80
2023-01-13T19:22:56.988Z,3.38
2023-01-13T19:25:24.684Z,2.63
2023-01-13T19:27:52.188Z,2.72
2023-01-13T19:30:19.962Z,3.22
2023-01-13T19:32:48.602Z,3.20
2023-01-13T19:35:18.089Z,3.22
2023-01-13T19:37:46.035Z,3.45
2023-01-13T19:40:13.944Z,3.03
2023-01-13T19:43:01.920Z,3.28
2023-01-13T19:45:32.057Z,2.70
2023-01-13T19:48:05.381Z,2.30
2023-01-13T19:50:37.528Z,2.13
2023-01-13T19:53:06.012Z,2.67
2023-01-13T19:55:33.757Z,2.92
2023-01-13T19:58:01.445Z,2.50
2023-01-13T20:00:30.278Z,2.63
2023-01-13T20:03:03.464Z,3.17
2023-01-13T20:05:31.303Z,2.10
2023-01-13T20:07:58.938Z,2.00
2023-01-13T20:10:26.680Z,3.15
2023-01-13T20:12:54.295Z,3.13
2023-01-13T20:15:21.942Z,2.88
2023-01-13T20:17:49.867Z,2.78
2023-01-13T20:20:18.828Z,2.80
2023-01-13T20:22:46.567Z,2.72
2023-01-13T20:25:17.185Z,3.45
2023-01-13T20:30:14.733Z,2.88
2023-01-13T20:32:44.041Z,3.05
2023-01-13T20:35:12.405Z,3.53
2023-01-13T20:37:41.527Z,3.58
2023-01-13T20:40:12.270Z,2.85
2023-01-13T20:42:45.209Z,4.07
2023-01-13T20:45:17.628Z,3.15
2023-01-13T20:47:45.915Z,4.97
2023-01-13T20:50:13.995Z,3.28
2023-01-13T20:52:42.938Z,2.90
2023-01-13T20:55:11.440Z,2.53
2023-01-13T20:57:39.129Z,3.47
2023-01-13T21:00:07.186Z,3.35
2023-01-13T21:02:34.880Z,3.75
2023-01-13T21:05:02.581Z,3.40
2023-01-13T21:07:30.202Z,3.33
2023-01-13T21:09:58.000Z,3.58
2023-01-13T21:12:44.415Z,2.97
2023-01-13T21:15:21.742Z,3.80
2023-01-13T21:18:09.660Z,4.00
2023-01-13T21:20:41.612Z,3.42
2023-01-13T21:23:11.701Z,3.20
2023-01-13T21:25:47.661Z,2.78
2023-01-13T21:28:16.756Z,3.28
2023-01-13T21:30:45.849Z,3.90
2023-01-13T21:33:14.652Z,3.63
2023-01-13T21:35:44.159Z,3.75
2023-01-13T21:38:13.763Z,4.65
2023-01-13T21:40:42.922Z,3.07
2023-01-13T21:43:46.451Z,4.50
2023-01-13T21:46:36.750Z,4.20
2023-01-13T21:49:08.164Z,4.63
2023-01-13T21:51:36.643Z,3.50
2023-01-13T21:54:04.335Z,4.13
2023-01-13T21:56:32.056Z,3.92
2023-01-13T21:58:59.638Z,3.20
2023-01-13T22:01:28.000Z,3.33
2023-01-13T22:04:13.936Z,4.30
2023-01-13T22:06:43.303Z,3.53
2023-01-13T22:09:11.272Z,4.32
2023-01-13T22:11:38.862Z,3.20
2023-01-13T22:14:10.051Z,3.40
2023-01-13T22:16:49.562Z,3.60
2023-01-13T22:19:18.924Z,3.83
2023-01-13T22:21:46.723Z,3.45
2023-01-13T22:24:14.243Z,3.95
2023-01-13T22:26:42.914Z,3.88
2023-01-13T22:29:16.118Z,3.70
2023-01-13T22:31:44.482Z,3.97
2023-01-13T22:34:13.377Z,3.60
2023-01-13T22:36:41.182Z,3.25
2023-01-13T22:39:10.025Z,3.10
2023-01-13T22:41:38.762Z,3.72
2023-01-13T22:44:06.301Z,3.05
2023-01-13T22:46:35.886Z,3.92
2023-01-13T22:49:03.471Z,3.17
2023-01-13T22:51:30.938Z,2.97
2023-01-13T22:53:58.557Z,3.60
2023-01-13T22:56:26.561Z,3.33
2023-01-13T22:58:54.817Z,3.13
2023-01-13T23:01:22.437Z,3.63
2023-01-13T23:03:50.376Z,4.47
2023-01-13T23:06:18.834Z,2.85
2023-01-13T23:08:47.250Z,3.50
2023-01-13T23:11:15.989Z,4.45
2023-01-13T23:13:43.826Z,3.65
2023-01-13T23:16:16.791Z,4.05
2023-01-13T23:18:48.328Z,3.75
2023-01-13T23:21:20.975Z,5.47
2023-01-13T23:23:48.577Z,4.78
2023-01-13T23:26:16.089Z,3.78
2023-01-13T23:28:43.643Z,3.78
2023-01-13T23:31:13.161Z,2.80
2023-01-13T23:33:44.252Z,3.47
2023-01-13T23:36:17.249Z,4.05
2023-01-13T23:38:45.022Z,3.75
2023-01-13T23:41:16.975Z,3.05
2023-01-13T23:43:44.898Z,3.88
2023-01-13T23:46:14.188Z,3.50
2023-01-13T23:48:42.607Z,3.58
2023-01-13T23:51:13.774Z,3.83
2023-01-13T23:53:45.960Z,4.47
2023-01-13T23:56:32.212Z,3.85
2023-01-13T23:59:00.051Z,4.30
